createdAt,value
2023-03-29T03:59:26.676Z,101249.91
2023-03-29T04:02:31.706Z,101248.50
2023-03-29T04:05:39.846Z,101249.84
2023-03-29T04:08:43.081Z,101250.56
2023-03-29T04:11:46.921Z,101259.06
2023-03-29T04:14:50.020Z,101250.56
2023-03-29T04:17:52.982Z,101247.91
2023-03-29T04:20:56.230Z,101250.78
2023-03-29T04:23:59.985Z,101247.13
2023-03-29T04:27:03.151Z,101254.84
2023-03-29T04:30:07.337Z,101260.25
2023-03-29T04:33:21.273Z,101263.19
2023-03-29T04:36:29.662Z,101256.28
2023-03-29T04:39:34.355Z,101257.16
2023-03-29T04:42:38.990Z,101255.28
2023-03-29T04:45:41.841Z,101253.59
2023-03-29T04:48:45.156Z,101254.09
2023-03-29T04:51:48.523Z,101246.03
2023-03-29T04:54:51.529Z,101250.06
2023-03-29T04:57:55.557Z,101245.78
2023-03-29T05:00:59.158Z,101255.28
2023-03-29T05:04:05.122Z,101257.97
2023-03-29T05:07:08.629Z,101266.50
2023-03-29T05:10:11.764Z,101263.56
2023-03-29T05:13:14.805Z,101259.78
2023-03-29T05:16:17.800Z,101260.53
2023-03-29T05:19:23.852Z,101262.16
2023-03-29T05:22:27.077Z,101260.19
2023-03-29T05:25:30.336Z,101255.56
2023-03-29T05:28:33.882Z,101254.25
2023-03-29T05:31:37.967Z,101252.59
2023-03-29T05:34:41.424Z,101252.31
2023-03-29T05:37:44.344Z,101259.63
2023-03-29T05:40:47.297Z,101256.59
2023-03-29T05:43:51.283Z,101259.44
2023-03-29T05:46:54.711Z,101258.22
2023-03-29T05:49:57.673Z,101263.22
2023-03-29T05:53:00.764Z,101273.44
2023-03-29T05:56:04.132Z,101270.38
2023-03-29T05:59:08.474Z,101272.31
2023-03-29T06:02:12.487Z,101279.97
2023-03-29T06:05:16.982Z,101271.94
2023-03-29T06:08:22.334Z,101271.69
2023-03-29T06:11:26.403Z,101279.78
2023-03-29T06:14:31.430Z,101281.81
2023-03-29T06:17:36.598Z,101283.09
2023-03-29T06:20:39.551Z,101280.25
2023-03-29T06:23:42.740Z,101279.38
2023-03-29T06:26:46.526Z,101278.13
2023-03-29T06:29:50.095Z,101291.13
2023-03-29T06:32:52.791Z,101292.31
2023-03-29T06:35:57.439Z,101288.91
2023-03-29T06:39:01.024Z,101285.81
2023-03-29T06:42:20.111Z,101296.44
2023-03-29T06:45:27.496Z,101296.53
2023-03-29T06:48:34.290Z,101296.97
2023-03-29T06:51:37.519Z,101301.09
2023-03-29T06:54:40.942Z,101301.25
2023-03-29T06:57:44.136Z,101299.91
2023-03-29T07:00:51.710Z,101298.91
2023-03-29T07:03:57.845Z,101296.56
2023-03-29T07:07:01.929Z,101305.69
2023-03-29T07:10:05.597Z,101307.34
2023-03-29T07:13:13.382Z,101306.81
2023-03-29T07:16:16.410Z,101303.78
2023-03-29T07:19:22.720Z,101317.47
2023-03-29T07:22:27.244Z,101310.88
2023-03-29T07:25:31.223Z,101318.72
2023-03-29T07:28:34.827Z,101320.38
2023-03-29T07:31:40.857Z,101317.47
2023-03-29T07:34:44.771Z,101322.78
2023-03-29T07:37:48.783Z,101327.66
2023-03-29T07:40:53.613Z,101328.06
2023-03-29T07:44:04.941Z,101330.56
2023-03-29T07:47:08.787Z,101326.09
2023-03-29T07:50:14.559Z,101337.03
2023-03-29T07:53:17.366Z,101333.69
2023-03-29T07:56:20.624Z,101328.00
2023-03-29T07:59:23.670Z,101326.78
2023-03-29T08:02:27.309Z,101327.28
2023-03-29T08:05:40.586Z,101334.03
2023-03-29T08:08:44.567Z,101328.78
2023-03-29T08:11:48.355Z,101324.91
2023-03-29T08:14:51.050Z,101326.00
2023-03-29T08:17:54.492Z,101323.22
2023-03-29T08:20:58.110Z,101329.69
2023-03-29T08:24:01.242Z,101318.34
2023-03-29T08:27:04.562Z,101319.84
2023-03-29T08:30:09.482Z,101324.31
2023-03-29T08:33:13.274Z,101315.13
2023-03-29T08:36:16.709Z,101311.25
2023-03-29T08:39:19.799Z,101309.94
2023-03-29T08:42:30.215Z,101304.91
2023-03-29T08:46:03.250Z,101316.25
2023-03-29T08:49:09.638Z,101310.94
2023-03-29T08:52:36.944Z,101316.16
2023-03-29T08:55:43.236Z,101302.28
2023-03-29T08:58:51.439Z,101296.47
2023-03-29T09:01:57.551Z,101301.87
2023-03-29T09:05:20.992Z,101294.63
2023-03-29T09:08:25.430Z,101290.50
2023-03-29T09:11:56.633Z,101289.31
2023-03-29T09:15:14.249Z,101292.44
2023-03-29T09:18:36.307Z,101284.13
2023-03-29T09:21:50.669Z,101275.00
2023-03-29T09:25:01.669Z,101276.12
2023-03-29T09:28:39.294Z,101267.16
2023-03-29T09:31:44.556Z,101267.47
2023-03-29T09:35:18.204Z,101259.84
2023-03-29T09:38:22.988Z,101267.41
2023-03-29T09:41:41.239Z,101269.94
2023-03-29T09:44:52.596Z,101264.47
2023-03-29T09:48:17.567Z,101256.59
2023-03-29T09:51:26.322Z,101255.62
2023-03-29T09:54:30.846Z,101255.31
2023-03-29T09:57:35.673Z,101247.53
2023-03-29T10:00:39.959Z,101248.09
2023-03-29T10:03:52.317Z,101233.06
2023-03-29T10:06:55.376Z,101232.78
2023-03-29T10:09:58.401Z,101232.59
2023-03-29T10:13:06.021Z,101224.25
2023-03-29T10:16:18.294Z,101222.66
2023-03-29T10:19:36.937Z,101208.44
2023-03-29T10:22:48.309Z,101212.53
2023-03-29T10:25:51.817Z,101204.66
2023-03-29T10:28:57.273Z,101203.03
2023-03-29T10:32:00.065Z,101194.00
2023-03-29T10:35:33.785Z,101205.09
2023-03-29T10:38:38.101Z,101198.72
2023-03-29T10:41:41.318Z,101195.09
2023-03-29T10:44:54.001Z,101186.78
2023-03-29T10:47:59.102Z,101179.72
2023-03-29T10:51:05.690Z,101181.06
2023-03-29T10:54:13.713Z,101182.34
2023-03-29T10:57:27.780Z,101179.59
2023-03-29T11:00:49.200Z,101177.56
2023-03-29T11:03:57.797Z,101174.03
2023-03-29T11:07:06.637Z,101172.25
2023-03-29T11:10:21.540Z,101161.19
2023-03-29T11:13:46.945Z,101160.66
2023-03-29T11:17:24.545Z,101160.31
2023-03-29T11:20:47.759Z,101155.19
2023-03-29T11:24:38.468Z,101152.94
2023-03-29T11:28:04.486Z,101149.75
2023-03-29T11:31:22.994Z,101147.69
2023-03-29T11:34:29.614Z,101145.47
2023-03-29T11:37:44.568Z,101134.50
2023-03-29T11:40:57.180Z,101133.00
2023-03-29T11:44:17.631Z,101128.87
2023-03-29T11:47:23.127Z,101130.62
2023-03-29T11:50:39.469Z,101121.06
2023-03-29T11:53:56.200Z,101123.72
2023-03-29T11:57:14.705Z,101104.19
2023-03-29T12:00:38.837Z,101098.22
2023-03-29T12:03:47.988Z,101107.09
2023-03-29T12:07:17.872Z,101098.88
2023-03-29T12:10:27.321Z,101093.81
2023-03-29T12:13:42.736Z,101098.28
2023-03-29T12:16:54.623Z,101086.12
2023-03-29T12:20:07.181Z,101082.38
2023-03-29T12:23:15.180Z,101075.84
2023-03-29T12:26:43.086Z,101079.56
2023-03-29T12:30:14.521Z,101078.44
2023-03-29T12:33:51.539Z,101069.34
2023-03-29T12:37:22.023Z,101059.50
2023-03-29T12:40:28.435Z,101060.25
2023-03-29T12:43:43.584Z,101061.97
2023-03-29T12:46:54.692Z,101048.97
2023-03-29T12:49:59.746Z,101050.53
2023-03-29T12:53:22.187Z,101049.75
2023-03-29T12:56:56.208Z,101051.38
2023-03-29T13:00:19.035Z,101047.97
2023-03-29T13:03:30.010Z,101049.25
2023-03-29T13:06:35.329Z,101055.91
2023-03-29T13:09:51.847Z,101049.78
2023-03-29T13:12:54.737Z,101052.59
2023-03-29T13:33:10.246Z,101017.38
2023-03-29T13:36:29.347Z,101019.34
2023-03-29T13:39:36.949Z,101015.63
2023-03-29T13:42:41.859Z,101004.41
2023-03-29T13:45:44.996Z,101006.69
2023-03-29T13:49:16.963Z,101012.12
2023-03-29T13:52:43.363Z,101002.25
2023-03-29T13:55:52.175Z,100986.94
2023-03-29T13:59:05.647Z,100985.81
2023-03-29T14:02:19.898Z,100985.47
2023-03-29T14:05:32.241Z,100985.00
2023-03-29T14:08:39.889Z,100991.84
2023-03-29T14:28:29.885Z,100976.47
2023-03-29T14:31:35.980Z,100970.53
2023-03-29T14:34:40.177Z,100968.22
2023-03-29T14:37:44.024Z,100971.00
2023-03-29T14:40:46.739Z,100966.19
2023-03-29T14:43:51.133Z,100978.97
2023-03-29T14:51:01.146Z,100971.47
2023-03-29T14:54:05.714Z,100968.59
2023-03-29T14:57:15.323Z,100971.16
2023-03-29T15:00:26.886Z,100971.72
2023-03-29T15:03:44.305Z,100971.19
2023-03-29T15:11:54.990Z,100967.34
2023-03-29T15:14:59.545Z,100964.31
2023-03-29T15:18:06.916Z,100967.81
2023-03-29T15:21:18.225Z,100963.56
2023-03-29T15:24:23.354Z,100965.59
2023-03-29T15:27:26.454Z,100963.19
2023-03-29T15:30:39.134Z,100959.34
2023-03-29T15:41:52.843Z,100950.47
2023-03-29T15:44:56.407Z,100941.87
2023-03-29T15:48:02.015Z,100946.44
2023-03-29T15:51:06.802Z,100939.38
2023-03-29T15:54:09.837Z,100939.81
2023-03-29T15:57:15.633Z,100938.19
